createdAt,value
2022-12-08T00:00:53.914Z,6.90
2022-12-08T00:03:20.780Z,7.03
2022-12-08T00:06:07.129Z,6.40
2022-12-08T00:08:52.354Z,6.55
2022-12-08T00:11:19.227Z,7.93
2022-12-08T00:13:45.931Z,7.07
2022-12-08T00:16:12.514Z,6.12
2022-12-08T00:18:39.122Z,7.10
2022-12-08T00:21:05.925Z,5.65
2022-12-08T00:23:32.579Z,8.13
2022-12-08T00:26:03.503Z,7.30
2022-12-08T00:28:30.086Z,6.62
2022-12-08T00:30:56.702Z,7.82
2022-12-08T00:33:23.349Z,7.03
2022-12-08T00:35:50.012Z,7.75
2022-12-08T00:38:16.598Z,5.87
2022-12-08T00:40:46.676Z,5.90
2022-12-08T00:43:13.779Z,6.80
2022-12-08T00:45:40.445Z,6.37
2022-12-08T00:48:07.161Z,8.43
2022-12-08T00:50:33.744Z,6.85
2022-12-08T00:53:00.321Z,6.78
2022-12-08T00:55:26.868Z,9.45
2022-12-08T00:57:53.443Z,7.60
2022-12-08T01:00:20.347Z,7.03
2022-12-08T01:02:46.981Z,6.78
2022-12-08T01:05:13.606Z,9.27
2022-12-08T01:07:40.267Z,8.60
2022-12-08T01:10:07.640Z,8.93
2022-12-08T01:12:34.262Z,8.30
2022-12-08T01:15:02.600Z,9.07
2022-12-08T01:17:29.530Z,9.02
2022-12-08T01:19:56.153Z,7.85
2022-12-08T01:22:22.809Z,9.65
2022-12-08T01:24:49.361Z,8.90
2022-12-08T01:27:16.295Z,8.80
2022-12-08T01:29:42.860Z,9.00
2022-12-08T01:32:09.529Z,8.77
2022-12-08T01:34:36.114Z,12.00
2022-12-08T01:37:02.711Z,11.27
2022-12-08T01:39:29.990Z,9.50
2022-12-08T01:41:56.655Z,10.32
2022-12-08T01:44:43.041Z,9.43
2022-12-08T01:47:09.612Z,10.52
2022-12-08T01:49:36.224Z,10.90
2022-12-08T01:52:09.378Z,9.30
2022-12-08T01:54:45.755Z,11.73
2022-12-08T01:57:22.997Z,11.23
2022-12-08T01:59:55.069Z,12.07
2022-12-08T02:02:21.705Z,10.48
2022-12-08T02:04:48.347Z,11.32
2022-12-08T02:07:14.947Z,10.63
2022-12-08T02:09:41.517Z,14.95
2022-12-08T02:12:08.302Z,11.63
2022-12-08T02:14:34.919Z,11.90
2022-12-08T02:17:14.072Z,10.48
2022-12-08T02:19:52.914Z,12.15
2022-12-08T02:22:31.992Z,11.30
2022-12-08T02:25:04.518Z,9.88
2022-12-08T02:27:34.018Z,12.18
2022-12-08T02:30:11.537Z,11.90
2022-12-08T02:32:56.948Z,11.30
2022-12-08T02:35:44.376Z,12.75
2022-12-08T02:38:23.782Z,12.43
2022-12-08T02:40:57.475Z,15.25
2022-12-08T02:43:35.543Z,13.20
2022-12-08T02:46:04.721Z,14.65
2022-12-08T02:48:32.597Z,14.80
2022-12-08T02:50:59.149Z,12.43
2022-12-08T02:53:27.336Z,12.68
2022-12-08T02:56:26.271Z,12.75
2022-12-08T02:58:56.520Z,11.73
2022-12-08T03:01:54.796Z,14.27
2022-12-08T03:04:58.794Z,11.88
2022-12-08T03:07:27.137Z,13.48
2022-12-08T03:09:58.685Z,11.18
2022-12-08T03:12:36.124Z,13.82
2022-12-08T03:15:06.566Z,12.05
2022-12-08T03:17:33.126Z,13.13
2022-12-08T03:20:01.915Z,12.20
2022-12-08T03:22:28.866Z,13.55
2022-12-08T03:24:55.503Z,13.18
2022-12-08T03:27:29.008Z,13.30
2022-12-08T03:29:58.345Z,15.98
2022-12-08T03:32:48.345Z,13.62
2022-12-08T03:35:17.182Z,12.50
2022-12-08T03:37:43.809Z,12.88
2022-12-08T03:40:12.602Z,13.43
2022-12-08T03:42:39.207Z,14.38
2022-12-08T03:45:06.216Z,14.38
2022-12-08T03:47:32.830Z,12.13
2022-12-08T03:49:59.401Z,13.85
2022-12-08T03:52:26.077Z,15.13
2022-12-08T03:54:54.979Z,12.85
2022-12-08T03:57:21.807Z,13.80
2022-12-08T03:59:48.343Z,14.27
2022-12-08T04:02:14.936Z,14.18
2022-12-08T04:04:41.529Z,13.05
2022-12-08T04:07:08.113Z,14.15
2022-12-08T04:09:34.671Z,13.18
2022-12-08T04:12:01.254Z,12.82
2022-12-08T04:14:27.820Z,12.50
2022-12-08T04:16:54.356Z,12.25
2022-12-08T04:19:20.945Z,12.93
2022-12-08T04:21:47.520Z,12.48
2022-12-08T04:24:14.150Z,13.15
2022-12-08T04:26:40.687Z,14.10
2022-12-08T04:29:07.262Z,11.73
2022-12-08T04:31:33.856Z,13.88
2022-12-08T04:34:00.499Z,12.40
2022-12-08T04:36:27.050Z,13.43
2022-12-08T04:38:54.148Z,12.30
2022-12-08T04:41:20.678Z,12.20
2022-12-08T04:43:47.253Z,13.40
2022-12-08T04:46:13.882Z,14.02
2022-12-08T04:48:40.580Z,13.07
2022-12-08T04:51:07.229Z,13.25
2022-12-08T04:53:33.849Z,11.48
2022-12-08T04:56:00.391Z,12.02
2022-12-08T04:58:26.935Z,12.40
2022-12-08T05:00:53.596Z,11.30
2022-12-08T05:03:25.272Z,13.05
2022-12-08T05:05:55.029Z,13.52
2022-12-08T05:08:21.631Z,11.80
2022-12-08T05:10:48.301Z,12.02
2022-12-08T05:13:14.927Z,11.68
2022-12-08T05:15:41.499Z,10.63
2022-12-08T05:18:08.153Z,11.57
2022-12-08T05:20:34.989Z,11.15
2022-12-08T05:23:01.563Z,12.18
2022-12-08T05:25:28.139Z,11.88
2022-12-08T05:28:06.088Z,11.12
2022-12-08T05:30:38.170Z,10.63
2022-12-08T05:33:04.729Z,11.85
2022-12-08T05:35:31.386Z,11.63
2022-12-08T05:37:57.941Z,11.25
2022-12-08T05:40:24.507Z,11.50
2022-12-08T05:42:51.106Z,10.48
2022-12-08T05:45:17.744Z,20.23
2022-12-08T05:47:44.373Z,21.73
2022-12-08T05:50:11.049Z,21.67
2022-12-08T05:52:37.640Z,13.13
2022-12-08T05:55:04.386Z,12.52
2022-12-08T05:57:30.957Z,12.23
2022-12-08T05:59:59.503Z,16.30
2022-12-08T06:02:26.706Z,18.85
2022-12-08T06:04:53.473Z,18.17
2022-12-08T06:07:20.046Z,15.63
2022-12-08T06:09:46.602Z,17.58
2022-12-08T06:12:13.159Z,15.75
2022-12-08T06:14:39.791Z,15.27
2022-12-08T06:17:06.476Z,16.90
2022-12-08T06:19:33.133Z,16.05
2022-12-08T06:21:59.723Z,17.40
2022-12-08T06:24:26.306Z,17.37
2022-12-08T06:26:52.862Z,18.37
2022-12-08T06:29:19.452Z,17.02
2022-12-08T06:31:46.023Z,19.08
2022-12-08T06:34:12.731Z,25.50
2022-12-08T06:36:39.347Z,18.40
2022-12-08T06:39:05.974Z,18.80
2022-12-08T06:41:32.526Z,20.60
2022-12-08T06:43:59.086Z,23.02
2022-12-08T06:46:25.752Z,24.35
2022-12-08T06:48:53.076Z,19.23
2022-12-08T06:51:21.234Z,19.73
2022-12-08T06:53:47.834Z,24.25
2022-12-08T06:56:15.733Z,19.30
2022-12-08T06:58:45.037Z,21.12
2022-12-08T07:01:13.345Z,18.50
2022-12-08T07:03:40.159Z,22.73
2022-12-08T14:42:24.463Z,7.80
2022-12-08T14:44:59.462Z,6.20
2022-12-08T14:47:29.683Z,5.47
2022-12-08T14:49:56.228Z,6.18
2022-12-08T14:52:22.906Z,8.55
2022-12-08T14:54:50.035Z,6.62
2022-12-08T14:57:16.601Z,8.00
2022-12-08T14:59:43.162Z,6.00
2022-12-08T15:02:15.613Z,6.18
2022-12-08T15:04:43.091Z,6.00
2022-12-08T15:07:19.290Z,7.45
2022-12-08T15:10:09.735Z,7.00
2022-12-08T15:12:36.297Z,6.32
2022-12-08T15:15:15.310Z,6.15
2022-12-08T15:17:47.890Z,7.45
2022-12-08T15:20:35.079Z,7.32
2022-12-08T15:23:02.013Z,7.07
2022-12-08T15:25:28.635Z,7.85
2022-12-08T15:27:57.067Z,7.57
2022-12-08T15:30:23.853Z,5.70
2022-12-08T15:32:52.377Z,6.12
2022-12-08T15:35:19.036Z,7.00
2022-12-08T15:37:46.442Z,6.95
2022-12-08T15:40:18.821Z,7.03
2022-12-08T15:42:45.501Z,7.10
2022-12-08T15:45:15.974Z,6.37
2022-12-08T15:47:42.774Z,8.18
2022-12-08T15:50:17.555Z,6.90
2022-12-08T15:52:44.286Z,6.28
2022-12-08T15:55:18.412Z,6.50
2022-12-08T16:09:29.877Z,6.43
2022-12-08T16:12:15.664Z,8.10
2022-12-08T16:17:30.917Z,7.37
2022-12-08T16:19:57.567Z,6.15
2022-12-08T16:25:18.784Z,6.37
2022-12-08T16:30:33.100Z,6.37
2022-12-08T16:32:59.684Z,6.35
2022-12-08T16:35:26.257Z,6.10
2022-12-08T16:37:52.809Z,5.93
2022-12-08T16:40:19.393Z,8.00
2022-12-08T16:42:47.797Z,6.78
2022-12-08T16:45:19.460Z,5.57
2022-12-08T16:47:47.558Z,5.45
2022-12-08T16:50:15.463Z,6.45
2022-12-08T16:52:42.017Z,6.55
2022-12-08T16:55:13.781Z,7.28
2022-12-08T16:57:40.479Z,6.85
2022-12-08T17:00:09.021Z,6.65
2022-12-08T17:02:35.584Z,6.47
2022-12-08T17:05:02.243Z,7.40
2022-12-08T17:07:28.881Z,6.68
2022-12-08T17:09:55.494Z,6.18
2022-12-08T17:12:22.138Z,7.65
2022-12-08T17:14:48.713Z,6.45
2022-12-08T17:17:15.282Z,5.05
2022-12-08T17:19:41.866Z,6.28
2022-12-08T17:22:08.436Z,5.82
2022-12-08T17:24:35.047Z,5.50
2022-12-08T17:27:04.481Z,7.75
2022-12-08T17:29:31.849Z,5.55
2022-12-08T17:31:58.563Z,6.10
2022-12-08T17:34:25.149Z,6.00
2022-12-08T17:36:51.873Z,6.15
2022-12-08T17:39:19.209Z,6.53
2022-12-08T17:41:46.436Z,6.93
2022-12-08T17:44:14.686Z,5.90
2022-12-08T17:46:44.298Z,7.18
2022-12-08T17:49:18.593Z,5.05
2022-12-08T17:51:49.162Z,6.53
2022-12-08T17:54:16.743Z,5.65
2022-12-08T17:56:43.543Z,6.82
2022-12-08T17:59:10.501Z,6.07
2022-12-08T18:01:37.189Z,6.68
2022-12-08T18:04:05.134Z,5.75
2022-12-08T18:06:31.701Z,5.57
2022-12-08T18:08:58.976Z,6.32
2022-12-08T18:11:25.757Z,5.00
2022-12-08T18:13:52.447Z,5.07
2022-12-08T18:16:20.432Z,7.43
2022-12-08T18:18:47.575Z,4.80
2022-12-08T18:21:19.902Z,6.50
2022-12-08T18:26:16.034Z,4.93
2022-12-08T18:28:42.636Z,6.62
2022-12-08T18:31:13.871Z,6.82
2022-12-08T18:33:41.124Z,6.22
2022-12-08T18:36:12.883Z,5.28
2022-12-08T18:38:39.585Z,5.75
2022-12-08T18:41:13.289Z,6.45
2022-12-08T18:43:39.883Z,5.97
2022-12-08T18:46:09.409Z,6.97
2022-12-08T18:48:37.214Z,5.45
2022-12-08T18:51:04.257Z,5.78
2022-12-08T18:53:31.603Z,6.97
2022-12-08T18:55:58.177Z,7.22
2022-12-08T18:58:24.727Z,5.75
2022-12-08T19:00:51.317Z,6.37
2022-12-08T19:03:18.007Z,5.40
2022-12-08T19:05:44.611Z,5.95
2022-12-08T19:08:11.250Z,6.60
2022-12-08T19:10:38.177Z,5.62
2022-12-08T19:13:05.698Z,5.78
2022-12-08T19:15:33.700Z,5.10
2022-12-08T19:18:00.376Z,6.00
2022-12-08T19:20:27.505Z,6.25
2022-12-08T19:22:54.478Z,6.47
2022-12-08T19:25:21.839Z,5.15
2022-12-08T19:27:48.429Z,5.30
2022-12-08T19:30:15.653Z,5.87
2022-12-08T19:32:42.201Z,6.43
2022-12-08T19:35:08.921Z,5.25
2022-12-08T19:37:35.556Z,5.18
2022-12-08T19:40:20.641Z,5.05
2022-12-08T19:43:05.472Z,6.77
2022-12-08T19:45:32.565Z,5.97
2022-12-08T19:47:59.277Z,6.53
2022-12-08T19:50:37.993Z,5.57
2022-12-08T19:53:09.294Z,5.62
2022-12-08T19:55:36.557Z,5.03
2022-12-08T19:58:03.459Z,5.35
2022-12-08T20:00:30.396Z,4.90
2022-12-08T20:02:58.580Z,6.10
2022-12-08T20:05:25.512Z,7.82
2022-12-08T20:07:55.597Z,5.62
2022-12-08T20:10:28.108Z,5.85
2022-12-08T20:13:15.283Z,5.43
2022-12-08T20:15:42.069Z,5.93
2022-12-08T20:18:08.921Z,5.32
2022-12-08T20:20:35.485Z,6.22
2022-12-08T20:23:02.046Z,5.25
2022-12-08T20:25:28.650Z,6.12
2022-12-08T20:27:55.817Z,6.12
2022-12-08T20:30:22.452Z,5.12
2022-12-08T20:32:49.039Z,5.72
2022-12-08T20:35:15.657Z,6.43
2022-12-08T20:37:42.349Z,6.37
2022-12-08T20:40:09.371Z,5.57
2022-12-08T20:42:35.952Z,5.37
2022-12-08T20:45:05.300Z,5.22
2022-12-08T20:47:32.264Z,6.03
2022-12-08T20:49:59.037Z,5.72
2022-12-08T20:52:25.672Z,7.47
2022-12-08T20:54:52.274Z,5.80
2022-12-08T20:57:18.839Z,7.50
2022-12-08T20:59:45.547Z,6.22
2022-12-08T21:02:12.213Z,5.22
2022-12-08T21:04:38.977Z,5.12
2022-12-08T21:07:05.834Z,5.28
2022-12-08T21:09:32.577Z,5.47
2022-12-08T21:11:59.225Z,5.90
2022-12-08T21:14:25.835Z,6.75
2022-12-08T21:16:54.568Z,5.93
2022-12-08T21:19:21.686Z,5.90
2022-12-08T21:21:50.501Z,6.20
2022-12-08T21:24:20.673Z,5.20
2022-12-08T21:26:47.442Z,6.03
2022-12-08T21:29:14.145Z,5.80
2022-12-08T21:31:41.027Z,5.95
2022-12-08T21:34:07.974Z,6.05
2022-12-08T21:36:34.765Z,7.35
2022-12-08T21:39:02.775Z,5.55
2022-12-08T21:41:48.627Z,6.25
2022-12-08T21:44:18.401Z,7.03
2022-12-08T21:46:45.018Z,5.70
2022-12-08T21:49:11.749Z,5.80
2022-12-08T21:51:42.140Z,6.68
2022-12-08T21:54:15.041Z,6.47
2022-12-08T21:56:45.949Z,6.07
2022-12-08T21:59:12.609Z,7.15
2022-12-08T22:01:39.507Z,6.35
2022-12-08T22:04:06.440Z,6.03
2022-12-08T22:06:33.292Z,6.47
2022-12-08T22:09:00.220Z,6.70
2022-12-08T22:11:27.681Z,8.18
2022-12-08T22:13:54.486Z,7.37
2022-12-08T22:16:21.346Z,6.65
2022-12-08T22:18:48.135Z,5.53
2022-12-08T22:21:16.142Z,6.10
2022-12-08T22:23:43.016Z,6.40
2022-12-08T22:26:09.831Z,7.20
2022-12-08T22:28:40.712Z,7.07
2022-12-08T22:31:11.386Z,6.80
2022-12-08T22:33:39.001Z,7.85
2022-12-08T22:36:10.706Z,6.15
2022-12-08T22:38:37.839Z,5.95
2022-12-08T22:41:05.240Z,6.72
2022-12-08T22:43:32.077Z,5.82
2022-12-08T22:45:58.702Z,6.28
2022-12-08T22:48:25.465Z,6.45
2022-12-08T22:50:52.032Z,6.65
2022-12-08T22:53:18.605Z,7.12
2022-12-08T22:55:45.277Z,5.87
2022-12-08T22:58:12.006Z,7.22
2022-12-08T23:00:38.658Z,6.35
2022-12-08T23:03:05.840Z,6.65
2022-12-08T23:05:36.787Z,7.55
2022-12-08T23:08:03.635Z,5.97
2022-12-08T23:10:30.353Z,7.97
2022-12-08T23:13:03.510Z,6.55
2022-12-08T23:15:30.691Z,5.57
2022-12-08T23:17:57.502Z,6.12
2022-12-08T23:20:24.228Z,6.40
2022-12-08T23:22:51.012Z,6.90
2022-12-08T23:25:18.532Z,6.43
2022-12-08T23:27:45.571Z,6.12
2022-12-08T23:30:12.681Z,6.43
2022-12-08T23:32:39.356Z,7.28
2022-12-08T23:35:06.645Z,7.40
2022-12-08T23:37:33.186Z,6.68
2022-12-08T23:39:59.890Z,6.80
2022-12-08T23:42:26.454Z,6.20
2022-12-08T23:44:53.137Z,6.43
2022-12-08T23:47:19.810Z,6.40
2022-12-08T23:49:46.382Z,7.65
2022-12-08T23:52:13.820Z,7.22
2022-12-08T23:54:40.579Z,6.85
2022-12-08T23:57:07.807Z,7.40
2022-12-08T23:59:34.408Z,6.80
